sensor_id;sensor_type;location;lat;lon;timestamp;P1;durP1;ratioP1;P2;durP2;ratioP2
56724;SDS011;42608;52.776;6.968;2022-09-29T00:01:24;5.22;;;3.63;;
56724;SDS011;42608;52.776;6.968;2022-09-29T00:03:50;4.05;;;3.75;;
56724;SDS011;42608;52.776;6.968;2022-09-29T00:06:16;4.13;;;3.72;;
56724;SDS011;42608;52.776;6.968;2022-09-29T00:08:43;4.88;;;4.38;;
56724;SDS011;42608;52.776;6.968;2022-09-29T00:11:10;3.97;;;3.67;;
56724;SDS011;42608;52.776;6.968;2022-09-29T00:13:38;4.75;;;4.07;;
56724;SDS011;42608;52.776;6.968;2022-09-29T00:16:04;5.28;;;4.78;;
56724;SDS011;42608;52.776;6.968;2022-09-29T00:18:31;4.35;;;4.05;;
56724;SDS011;42608;52.776;6.968;2022-09-29T00:21:07;5.07;;;4.53;;
56724;SDS011;42608;52.776;6.968;2022-09-29T00:23:35;4.97;;;4.47;;
56724;SDS011;42608;52.776;6.968;2022-09-29T00:26:08;9.88;;;4.15;;
56724;SDS011;42608;52.776;6.968;2022-09-29T00:28:36;4.43;;;4.03;;
56724;SDS011;42608;52.776;6.968;2022-09-29T00:31:04;8.05;;;4.07;;
56724;SDS011;42608;52.776;6.968;2022-09-29T00:33:31;4.32;;;3.63;;
56724;SDS011;42608;52.776;6.968;2022-09-29T00:36:00;5.43;;;3.20;;
56724;SDS011;42608;52.776;6.968;2022-09-29T00:38:28;2.90;;;2.70;;
56724;SDS011;42608;52.776;6.968;2022-09-29T00:40:54;2.70;;;2.50;;
56724;SDS011;42608;52.776;6.968;2022-09-29T00:43:21;2.70;;;2.50;;
56724;SDS011;42608;52.776;6.968;2022-09-29T00:45:52;3.78;;;2.80;;
56724;SDS011;42608;52.776;6.968;2022-09-29T00:48:20;3.22;;;3.00;;
56724;SDS011;42608;52.776;6.968;2022-09-29T00:50:54;3.63;;;3.33;;
56724;SDS011;42608;52.776;6.968;2022-09-29T00:53:21;5.07;;;3.60;;
56724;SDS011;42608;52.776;6.968;2022-09-29T00:55:55;4.40;;;3.58;;
56724;SDS011;42608;52.776;6.968;2022-09-29T01:01:27;4.05;;;3.65;;
56724;SDS011;42608;52.776;6.968;2022-09-29T01:03:55;5.85;;;4.20;;
56724;SDS011;42608;52.776;6.968;2022-09-29T01:06:43;5.88;;;4.07;;
56724;SDS011;42608;52.776;6.968;2022-09-29T01:09:19;4.38;;;3.97;;
56724;SDS011;42608;52.776;6.968;2022-09-29T01:11:48;4.40;;;4.07;;
56724;SDS011;42608;52.776;6.968;2022-09-29T01:14:16;4.97;;;4.53;;
56724;SDS011;42608;52.776;6.968;2022-09-29T01:16:43;4.53;;;4.13;;
56724;SDS011;42608;52.776;6.968;2022-09-29T01:19:17;4.25;;;3.85;;
56724;SDS011;42608;52.776;6.968;2022-09-29T01:22:02;3.03;;;2.72;;
56724;SDS011;42608;52.776;6.968;2022-09-29T01:24:53;4.00;;;2.50;;
56724;SDS011;42608;52.776;6.968;2022-09-29T01:30:57;2.60;;;2.40;;
56724;SDS011;42608;52.776;6.968;2022-09-29T01:33:41;2.92;;;2.72;;
56724;SDS011;42608;52.776;6.968;2022-09-29T01:39:12;2.72;;;2.53;;
56724;SDS011;42608;52.776;6.968;2022-09-29T01:42:04;3.38;;;3.03;;
56724;SDS011;42608;52.776;6.968;2022-09-29T01:50:11;3.72;;;3.42;;
56724;SDS011;42608;52.776;6.968;2022-09-29T01:52:47;3.55;;;2.90;;
56724;SDS011;42608;52.776;6.968;2022-09-29T01:55:20;3.25;;;2.95;;
56724;SDS011;42608;52.776;6.968;2022-09-29T01:58:06;3.65;;;3.35;;
56724;SDS011;42608;52.776;6.968;2022-09-29T02:00:36;3.35;;;3.03;;
56724;SDS011;42608;52.776;6.968;2022-09-29T02:03:10;3.63;;;3.33;;
56724;SDS011;42608;52.776;6.968;2022-09-29T02:08:24;5.25;;;3.47;;
56724;SDS011;42608;52.776;6.968;2022-09-29T02:11:06;3.80;;;3.50;;
56724;SDS011;42608;52.776;6.968;2022-09-29T02:13:45;4.60;;;4.18;;
56724;SDS011;42608;52.776;6.968;2022-09-29T02:16:30;4.93;;;4.53;;
56724;SDS011;42608;52.776;6.968;2022-09-29T02:19:10;5.60;;;5.10;;
56724;SDS011;42608;52.776;6.968;2022-09-29T02:21:40;6.10;;;5.60;;
56724;SDS011;42608;52.776;6.968;2022-09-29T02:24:07;5.97;;;5.07;;
56724;SDS011;42608;52.776;6.968;2022-09-29T02:26:33;6.50;;;5.90;;
56724;SDS011;42608;52.776;6.968;2022-09-29T02:29:03;5.20;;;4.80;;
56724;SDS011;42608;52.776;6.968;2022-09-29T02:31:30;4.43;;;4.13;;
56724;SDS011;42608;52.776;6.968;2022-09-29T02:33:57;5.25;;;4.85;;
56724;SDS011;42608;52.776;6.968;2022-09-29T02:58:11;5.10;;;4.70;;
56724;SDS011;42608;52.776;6.968;2022-09-29T03:00:38;5.97;;;5.47;;
56724;SDS011;42608;52.776;6.968;2022-09-29T03:03:05;6.32;;;5.72;;
56724;SDS011;42608;52.776;6.968;2022-09-29T03:05:30;6.60;;;6.10;;
56724;SDS011;42608;52.776;6.968;2022-09-29T03:07:56;7.15;;;6.55;;
56724;SDS011;42608;52.776;6.968;2022-09-29T03:10:22;6.90;;;6.20;;
56724;SDS011;42608;52.776;6.968;2022-09-29T03:12:47;6.78;;;6.18;;
56724;SDS011;42608;52.776;6.968;2022-09-29T03:15:13;6.07;;;5.57;;
56724;SDS011;42608;52.776;6.968;2022-09-29T03:17:39;6.65;;;5.80;;
56724;SDS011;42608;52.776;6.968;2022-09-29T03:20:06;6.40;;;5.68;;
56724;SDS011;42608;52.776;6.968;2022-09-29T03:22:32;6.38;;;5.82;;
56724;SDS011;42608;52.776;6.968;2022-09-29T03:24:58;7.38;;;6.68;;
56724;SDS011;42608;52.776;6.968;2022-09-29T03:27:24;6.38;;;5.88;;
56724;SDS011;42608;52.776;6.968;2022-09-29T03:29:50;6.20;;;5.63;;
56724;SDS011;42608;52.776;6.968;2022-09-29T03:32:16;6.93;;;6.32;;
56724;SDS011;42608;52.776;6.968;2022-09-29T03:34:42;6.65;;;6.10;;
56724;SDS011;42608;52.776;6.968;2022-09-29T03:37:07;7.38;;;6.78;;
56724;SDS011;42608;52.776;6.968;2022-09-29T03:39:33;7.10;;;6.50;;
56724;SDS011;42608;52.776;6.968;2022-09-29T03:41:59;7.60;;;7.00;;
56724;SDS011;42608;52.776;6.968;2022-09-29T03:44:25;13.95;;;6.55;;
56724;SDS011;42608;52.776;6.968;2022-09-29T03:46:50;12.25;;;8.07;;
56724;SDS011;42608;52.776;6.968;2022-09-29T03:49:16;7.90;;;7.28;;
56724;SDS011;42608;52.776;6.968;2022-09-29T03:51:42;8.05;;;7.35;;
56724;SDS011;42608;52.776;6.968;2022-09-29T03:54:08;9.75;;;8.95;;
56724;SDS011;42608;52.776;6.968;2022-09-29T03:56:35;9.32;;;8.52;;
56724;SDS011;42608;52.776;6.968;2022-09-29T03:59:01;7.10;;;6.60;;
56724;SDS011;42608;52.776;6.968;2022-09-29T04:01:29;5.03;;;4.63;;
56724;SDS011;42608;52.776;6.968;2022-09-29T04:03:58;4.75;;;4.35;;
56724;SDS011;42608;52.776;6.968;2022-09-29T04:06:24;4.97;;;4.57;;
56724;SDS011;42608;52.776;6.968;2022-09-29T04:08:50;5.38;;;4.53;;
56724;SDS011;42608;52.776;6.968;2022-09-29T04:11:16;6.05;;;5.55;;
56724;SDS011;42608;52.776;6.968;2022-09-29T04:13:41;5.93;;;5.43;;
56724;SDS011;42608;52.776;6.968;2022-09-29T04:16:07;6.85;;;6.25;;
56724;SDS011;42608;52.776;6.968;2022-09-29T04:18:33;11.90;;;6.68;;
56724;SDS011;42608;52.776;6.968;2022-09-29T04:21:03;7.40;;;6.80;;
56724;SDS011;42608;52.776;6.968;2022-09-29T04:23:30;7.88;;;7.18;;
56724;SDS011;42608;52.776;6.968;2022-09-29T04:25:56;7.53;;;6.82;;
56724;SDS011;42608;52.776;6.968;2022-09-29T04:28:22;7.20;;;6.60;;
56724;SDS011;42608;52.776;6.968;2022-09-29T04:30:48;7.30;;;6.70;;
56724;SDS011;42608;52.776;6.968;2022-09-29T04:33:14;7.10;;;6.50;;
56724;SDS011;42608;52.776;6.968;2022-09-29T04:35:40;7.07;;;6.38;;
56724;SDS011;42608;52.776;6.968;2022-09-29T04:38:06;6.70;;;6.20;;
56724;SDS011;42608;52.776;6.968;2022-09-29T04:40:33;7.70;;;7.07;;
56724;SDS011;42608;52.776;6.968;2022-09-29T04:42:59;7.38;;;6.68;;
56724;SDS011;42608;52.776;6.968;2022-09-29T04:45:25;7.68;;;7.05;;
56724;SDS011;42608;52.776;6.968;2022-09-29T04:47:51;7.80;;;7.10;;
56724;SDS011;42608;52.776;6.968;2022-09-29T04:50:17;10.07;;;9.23;;
56724;SDS011;42608;52.776;6.968;2022-09-29T04:52:42;8.10;;;7.40;;
56724;SDS011;42608;52.776;6.968;2022-09-29T04:55:09;8.35;;;7.65;;
56724;SDS011;42608;52.776;6.968;2022-09-29T04:57:36;7.25;;;6.63;;
56724;SDS011;42608;52.776;6.968;2022-09-29T05:00:03;7.80;;;7.15;;
56724;SDS011;42608;52.776;6.968;2022-09-29T05:02:30;7.57;;;6.88;;
56724;SDS011;42608;52.776;6.968;2022-09-29T05:04:55;7.05;;;6.45;;
56724;SDS011;42608;52.776;6.968;2022-09-29T05:07:21;6.95;;;6.35;;
56724;SDS011;42608;52.776;6.968;2022-09-29T05:09:47;6.45;;;5.95;;
56724;SDS011;42608;52.776;6.968;2022-09-29T05:12:12;7.13;;;6.43;;
56724;SDS011;42608;52.776;6.968;2022-09-29T05:14:38;8.40;;;7.47;;
56724;SDS011;42608;52.776;6.968;2022-09-29T05:17:04;11.13;;;8.57;;
56724;SDS011;42608;52.776;6.968;2022-09-29T05:19:30;9.88;;;8.15;;
56724;SDS011;42608;52.776;6.968;2022-09-29T05:21:56;25.60;;;8.27;;
56724;SDS011;42608;52.776;6.968;2022-09-29T05:24:23;11.27;;;9.23;;
56724;SDS011;42608;52.776;6.968;2022-09-29T05:26:49;9.30;;;8.48;;
56724;SDS011;42608;52.776;6.968;2022-09-29T05:29:15;8.30;;;7.60;;
56724;SDS011;42608;52.776;6.968;2022-09-29T05:31:41;8.13;;;7.32;;
56724;SDS011;42608;52.776;6.968;2022-09-29T05:34:06;9.30;;;8.55;;
56724;SDS011;42608;52.776;6.968;2022-09-29T05:36:32;9.43;;;8.63;;
56724;SDS011;42608;52.776;6.968;2022-09-29T05:38:58;9.50;;;8.50;;
56724;SDS011;42608;52.776;6.968;2022-09-29T05:41:23;9.57;;;7.93;;
56724;SDS011;42608;52.776;6.968;2022-09-29T05:43:50;8.80;;;8.10;;
56724;SDS011;42608;52.776;6.968;2022-09-29T05:46:19;9.57;;;8.63;;
56724;SDS011;42608;52.776;6.968;2022-09-29T05:48:46;8.50;;;7.70;;
56724;SDS011;42608;52.776;6.968;2022-09-29T05:51:13;8.57;;;7.78;;
56724;SDS011;42608;52.776;6.968;2022-09-29T05:53:41;8.57;;;7.78;;
56724;SDS011;42608;52.776;6.968;2022-09-29T05:56:14;7.63;;;7.03;;
56724;SDS011;42608;52.776;6.968;2022-09-29T05:58:45;8.73;;;7.93;;
56724;SDS011;42608;52.776;6.968;2022-09-29T06:01:15;9.38;;;8.48;;
56724;SDS011;42608;52.776;6.968;2022-09-29T06:03:43;7.82;;;7.15;;
56724;SDS011;42608;52.776;6.968;2022-09-29T06:08:36;8.75;;;8.00;;
56724;SDS011;42608;52.776;6.968;2022-09-29T06:11:10;8.63;;;7.82;;
56724;SDS011;42608;52.776;6.968;2022-09-29T06:13:38;8.30;;;7.60;;
56724;SDS011;42608;52.776;6.968;2022-09-29T06:16:05;8.15;;;7.47;;
56724;SDS011;42608;52.776;6.968;2022-09-29T06:18:32;7.70;;;7.10;;
56724;SDS011;42608;52.776;6.968;2022-09-29T06:21:05;7.68;;;7.13;;
56724;SDS011;42608;52.776;6.968;2022-09-29T06:23:33;8.43;;;7.68;;
56724;SDS011;42608;52.776;6.968;2022-09-29T06:25:59;7.80;;;7.07;;
56724;SDS011;42608;52.776;6.968;2022-09-29T06:28:28;7.90;;;7.30;;
56724;SDS011;42608;52.776;6.968;2022-09-29T06:30:58;9.38;;;8.35;;
56724;SDS011;42608;52.776;6.968;2022-09-29T06:33:43;9.55;;;8.75;;
56724;SDS011;42608;52.776;6.968;2022-09-29T06:36:19;10.38;;;9.35;;
56724;SDS011;42608;52.776;6.968;2022-09-29T06:39:10;10.20;;;9.30;;
56724;SDS011;42608;52.776;6.968;2022-09-29T06:41:37;11.48;;;9.60;;
56724;SDS011;42608;52.776;6.968;2022-09-29T06:44:03;10.40;;;9.50;;
56724;SDS011;42608;52.776;6.968;2022-09-29T06:46:29;9.35;;;8.57;;
56724;SDS011;42608;52.776;6.968;2022-09-29T06:48:55;11.20;;;10.20;;
56724;SDS011;42608;52.776;6.968;2022-09-29T06:51:21;10.02;;;9.18;;
56724;SDS011;42608;52.776;6.968;2022-09-29T06:53:48;10.25;;;9.40;;
56724;SDS011;42608;52.776;6.968;2022-09-29T06:56:15;10.88;;;9.88;;
56724;SDS011;42608;52.776;6.968;2022-09-29T06:58:43;12.20;;;11.10;;
56724;SDS011;42608;52.776;6.968;2022-09-29T07:01:09;12.18;;;11.05;;
56724;SDS011;42608;52.776;6.968;2022-09-29T07:03:35;12.60;;;11.50;;
56724;SDS011;42608;52.776;6.968;2022-09-29T07:06:02;14.82;;;13.35;;
56724;SDS011;42608;52.776;6.968;2022-09-29T07:08:32;14.73;;;13.38;;
56724;SDS011;42608;52.776;6.968;2022-09-29T07:11:00;15.82;;;14.32;;
56724;SDS011;42608;52.776;6.968;2022-09-29T07:13:29;17.27;;;15.50;;
56724;SDS011;42608;52.776;6.968;2022-09-29T07:15:55;17.95;;;15.50;;
56724;SDS011;42608;52.776;6.968;2022-09-29T07:18:21;22.30;;;17.73;;
56724;SDS011;42608;52.776;6.968;2022-09-29T07:20:46;19.63;;;17.67;;
56724;SDS011;42608;52.776;6.968;2022-09-29T07:23:12;19.90;;;17.92;;
56724;SDS011;42608;52.776;6.968;2022-09-29T07:25:38;19.25;;;17.33;;
56724;SDS011;42608;52.776;6.968;2022-09-29T07:28:04;21.23;;;17.73;;
56724;SDS011;42608;52.776;6.968;2022-09-29T07:30:29;20.50;;;18.15;;
56724;SDS011;42608;52.776;6.968;2022-09-29T07:32:55;23.75;;;19.60;;
56724;SDS011;42608;52.776;6.968;2022-09-29T07:35:21;22.20;;;19.20;;
56724;SDS011;42608;52.776;6.968;2022-09-29T07:37:51;19.02;;;17.23;;
56724;SDS011;42608;52.776;6.968;2022-09-29T07:40:20;20.75;;;18.60;;
56724;SDS011;42608;52.776;6.968;2022-09-29T07:42:47;20.40;;;18.40;;
56724;SDS011;42608;52.776;6.968;2022-09-29T07:45:14;23.45;;;20.73;;
56724;SDS011;42608;52.776;6.968;2022-09-29T07:47:44;20.48;;;18.48;;
56724;SDS011;42608;52.776;6.968;2022-09-29T07:50:10;21.67;;;19.30;;
56724;SDS011;42608;52.776;6.968;2022-09-29T07:52:36;24.23;;;20.52;;
56724;SDS011;42608;52.776;6.968;2022-09-29T07:55:02;22.65;;;20.50;;
56724;SDS011;42608;52.776;6.968;2022-09-29T07:57:28;24.15;;;21.85;;
56724;SDS011;42608;52.776;6.968;2022-09-29T07:59:54;23.88;;;21.67;;
56724;SDS011;42608;52.776;6.968;2022-09-29T08:02:22;22.92;;;20.77;;
56724;SDS011;42608;52.776;6.968;2022-09-29T08:04:49;23.60;;;21.42;;
56724;SDS011;42608;52.776;6.968;2022-09-29T08:07:14;24.23;;;21.92;;
56724;SDS011;42608;52.776;6.968;2022-09-29T08:09:40;23.92;;;21.63;;
56724;SDS011;42608;52.776;6.968;2022-09-29T08:12:06;23.48;;;21.23;;
56724;SDS011;42608;52.776;6.968;2022-09-29T08:14:32;24.30;;;21.83;;
56724;SDS011;42608;52.776;6.968;2022-09-29T08:16:59;26.05;;;23.55;;
56724;SDS011;42608;52.776;6.968;2022-09-29T08:19:24;24.10;;;21.70;;
56724;SDS011;42608;52.776;6.968;2022-09-29T08:21:51;25.00;;;22.67;;
56724;SDS011;42608;52.776;6.968;2022-09-29T08:24:17;24.35;;;21.92;;
56724;SDS011;42608;52.776;6.968;2022-09-29T08:26:43;26.83;;;24.23;;
56724;SDS011;42608;52.776;6.968;2022-09-29T08:29:09;24.55;;;22.27;;
56724;SDS011;42608;52.776;6.968;2022-09-29T08:31:38;25.35;;;22.75;;
56724;SDS011;42608;52.776;6.968;2022-09-29T08:34:03;25.70;;;23.35;;
56724;SDS011;42608;52.776;6.968;2022-09-29T08:36:30;25.52;;;23.13;;
56724;SDS011;42608;52.776;6.968;2022-09-29T08:38:56;24.75;;;22.55;;
56724;SDS011;42608;52.776;6.968;2022-09-29T08:46:43;26.25;;;23.63;;
56724;SDS011;42608;52.776;6.968;2022-09-29T08:49:16;26.35;;;23.65;;
56724;SDS011;42608;52.776;6.968;2022-09-29T08:51:50;26.90;;;24.17;;
56724;SDS011;42608;52.776;6.968;2022-09-29T08:54:32;29.67;;;26.67;;
56724;SDS011;42608;52.776;6.968;2022-09-29T08:57:00;27.08;;;24.38;;
56724;SDS011;42608;52.776;6.968;2022-09-29T08:59:27;28.55;;;25.48;;
56724;SDS011;42608;52.776;6.968;2022-09-29T09:11:00;25.65;;;23.05;;
56724;SDS011;42608;52.776;6.968;2022-09-29T09:21:57;27.13;;;24.27;;
56724;SDS011;42608;52.776;6.968;2022-09-29T09:24:58;28.15;;;25.20;;
56724;SDS011;42608;52.776;6.968;2022-09-29T09:28:00;26.17;;;23.52;;
56724;SDS011;42608;52.776;6.968;2022-09-29T09:30:50;26.90;;;24.17;;
56724;SDS011;42608;52.776;6.968;2022-09-29T09:35:57;22.58;;;20.45;;
56724;SDS011;42608;52.776;6.968;2022-09-29T09:38:32;20.73;;;18.67;;
56724;SDS011;42608;52.776;6.968;2022-09-29T09:41:15;21.80;;;19.75;;
56724;SDS011;42608;52.776;6.968;2022-09-29T09:43:46;21.17;;;19.17;;
56724;SDS011;42608;52.776;6.968;2022-09-29T09:46:33;20.55;;;18.50;;
56724;SDS011;42608;52.776;6.968;2022-09-29T09:49:12;19.85;;;17.85;;
56724;SDS011;42608;52.776;6.968;2022-09-29T09:51:59;20.50;;;17.42;;
56724;SDS011;42608;52.776;6.968;2022-09-29T09:54:40;19.23;;;17.33;;
56724;SDS011;42608;52.776;6.968;2022-09-29T10:02:53;14.65;;;13.15;;
56724;SDS011;42608;52.776;6.968;2022-09-29T10:05:25;14.50;;;13.02;;
56724;SDS011;42608;52.776;6.968;2022-09-29T10:08:01;12.48;;;11.38;;
56724;SDS011;42608;52.776;6.968;2022-09-29T10:10:28;13.25;;;11.77;;
56724;SDS011;42608;52.776;6.968;2022-09-29T10:12:57;12.20;;;11.00;;
56724;SDS011;42608;52.776;6.968;2022-09-29T10:15:39;12.20;;;11.10;;
56724;SDS011;42608;52.776;6.968;2022-09-29T10:20:54;12.35;;;11.25;;
56724;SDS011;42608;52.776;6.968;2022-09-29T10:23:30;13.93;;;10.93;;
56724;SDS011;42608;52.776;6.968;2022-09-29T10:26:08;11.20;;;10.10;;
56724;SDS011;42608;52.776;6.968;2022-09-29T10:34:25;9.90;;;8.82;;
56724;SDS011;42608;52.776;6.968;2022-09-29T10:45:00;7.93;;;7.18;;
56724;SDS011;42608;52.776;6.968;2022-09-29T10:47:28;11.75;;;8.32;;
56724;SDS011;42608;52.776;6.968;2022-09-29T10:52:46;9.20;;;8.23;;
56724;SDS011;42608;52.776;6.968;2022-09-29T10:55:21;9.90;;;9.00;;
56724;SDS011;42608;52.776;6.968;2022-09-29T10:57:52;9.48;;;8.38;;
56724;SDS011;42608;52.776;6.968;2022-09-29T11:02:50;8.57;;;7.82;;
56724;SDS011;42608;52.776;6.968;2022-09-29T11:05:19;12.20;;;8.70;;
56724;SDS011;42608;52.776;6.968;2022-09-29T11:07:50;9.13;;;8.10;;
56724;SDS011;42608;52.776;6.968;2022-09-29T11:18:19;8.75;;;7.85;;
56724;SDS011;42608;52.776;6.968;2022-09-29T11:20:48;9.68;;;8.82;;
56724;SDS011;42608;52.776;6.968;2022-09-29T11:23:35;10.55;;;7.68;;
56724;SDS011;42608;52.776;6.968;2022-09-29T11:28:39;8.63;;;7.10;;
56724;SDS011;42608;52.776;6.968;2022-09-29T11:34:30;7.38;;;5.65;;
56724;SDS011;42608;52.776;6.968;2022-09-29T11:43:22;6.85;;;5.68;;
56724;SDS011;42608;52.776;6.968;2022-09-29T12:00:26;5.95;;;4.85;;
56724;SDS011;42608;52.776;6.968;2022-09-29T12:11:06;6.80;;;4.88;;
56724;SDS011;42608;52.776;6.968;2022-09-29T12:13:50;5.28;;;4.78;;
56724;SDS011;42608;52.776;6.968;2022-09-29T12:16:27;5.80;;;4.45;;
56724;SDS011;42608;52.776;6.968;2022-09-29T12:21:45;6.88;;;5.60;;
56724;SDS011;42608;52.776;6.968;2022-09-29T12:24:17;6.85;;;6.25;;
56724;SDS011;42608;52.776;6.968;2022-09-29T12:27:09;6.70;;;5.47;;
56724;SDS011;42608;52.776;6.968;2022-09-29T12:30:05;7.20;;;5.63;;
56724;SDS011;42608;52.776;6.968;2022-09-29T12:38:16;7.28;;;5.22;;
56724;SDS011;42608;52.776;6.968;2022-09-29T12:40:58;5.25;;;4.85;;
56724;SDS011;42608;52.776;6.968;2022-09-29T12:43:47;6.82;;;6.22;;
56724;SDS011;42608;52.776;6.968;2022-09-29T12:52:30;9.77;;;5.30;;
56724;SDS011;42608;52.776;6.968;2022-09-29T12:55:06;5.88;;;4.90;;
56724;SDS011;42608;52.776;6.968;2022-09-29T12:57:40;6.88;;;5.78;;
56724;SDS011;42608;52.776;6.968;2022-09-29T13:00:13;10.77;;;7.15;;
56724;SDS011;42608;52.776;6.968;2022-09-29T13:05:34;6.57;;;5.90;;
56724;SDS011;42608;52.776;6.968;2022-09-29T13:16:04;4.32;;;3.30;;
56724;SDS011;42608;52.776;6.968;2022-09-29T13:28:55;3.78;;;3.47;;
56724;SDS011;42608;52.776;6.968;2022-09-29T13:31:28;6.40;;;4.82;;
56724;SDS011;42608;52.776;6.968;2022-09-29T13:33:57;5.65;;;5.15;;
56724;SDS011;42608;52.776;6.968;2022-09-29T13:36:31;5.10;;;4.60;;
56724;SDS011;42608;52.776;6.968;2022-09-29T13:39:02;4.50;;;4.10;;
56724;SDS011;42608;52.776;6.968;2022-09-29T13:46:25;5.85;;;5.28;;
56724;SDS011;42608;52.776;6.968;2022-09-29T13:51:48;5.25;;;4.75;;
56724;SDS011;42608;52.776;6.968;2022-09-29T13:54:25;7.30;;;5.13;;
56724;SDS011;42608;52.776;6.968;2022-09-29T13:57:04;5.28;;;4.78;;
56724;SDS011;42608;52.776;6.968;2022-09-29T13:59:31;5.20;;;4.35;;
56724;SDS011;42608;52.776;6.968;2022-09-29T14:01:58;4.50;;;4.10;;
56724;SDS011;42608;52.776;6.968;2022-09-29T14:06:59;5.97;;;5.00;;
56724;SDS011;42608;52.776;6.968;2022-09-29T14:09:28;5.25;;;4.78;;
56724;SDS011;42608;52.776;6.968;2022-09-29T14:12:01;8.32;;;5.50;;
56724;SDS011;42608;52.776;6.968;2022-09-29T14:14:35;4.63;;;4.18;;
56724;SDS011;42608;52.776;6.968;2022-09-29T14:22:49;5.22;;;4.72;;
56724;SDS011;42608;52.776;6.968;2022-09-29T14:41:28;3.97;;;3.30;;
56724;SDS011;42608;52.776;6.968;2022-09-29T14:44:08;3.70;;;3.35;;
56724;SDS011;42608;52.776;6.968;2022-09-29T14:47:30;3.88;;;3.58;;
56724;SDS011;42608;52.776;6.968;2022-09-29T14:56:29;4.05;;;3.42;;
56724;SDS011;42608;52.776;6.968;2022-09-29T15:04:43;2.85;;;2.65;;
56724;SDS011;42608;52.776;6.968;2022-09-29T15:07:10;3.40;;;3.10;;
56724;SDS011;42608;52.776;6.968;2022-09-29T15:09:43;3.08;;;2.88;;
56724;SDS011;42608;52.776;6.968;2022-09-29T15:12:15;3.40;;;3.10;;
56724;SDS011;42608;52.776;6.968;2022-09-29T15:14:44;3.83;;;3.47;;
56724;SDS011;42608;52.776;6.968;2022-09-29T15:25:18;2.72;;;2.53;;
56724;SDS011;42608;52.776;6.968;2022-09-29T15:30:40;4.68;;;3.20;;
56724;SDS011;42608;52.776;6.968;2022-09-29T15:33:15;3.60;;;2.85;;
56724;SDS011;42608;52.776;6.968;2022-09-29T15:35:55;4.22;;;3.38;;
56724;SDS011;42608;52.776;6.968;2022-09-29T15:40:54;5.70;;;3.80;;
56724;SDS011;42608;52.776;6.968;2022-09-29T15:45:54;4.85;;;4.15;;
56724;SDS011;42608;52.776;6.968;2022-09-29T15:48:36;5.00;;;3.97;;
56724;SDS011;42608;52.776;6.968;2022-09-29T15:51:02;8.57;;;3.58;;
56724;SDS011;42608;52.776;6.968;2022-09-29T15:53:28;3.05;;;2.83;;
56724;SDS011;42608;52.776;6.968;2022-09-29T15:55:56;3.53;;;2.80;;
56724;SDS011;42608;52.776;6.968;2022-09-29T16:01:06;4.40;;;3.20;;
56724;SDS011;42608;52.776;6.968;2022-09-29T16:06:26;4.97;;;3.60;;
56724;SDS011;42608;52.776;6.968;2022-09-29T16:08:54;4.22;;;2.95;;
56724;SDS011;42608;52.776;6.968;2022-09-29T16:11:32;3.92;;;3.50;;
56724;SDS011;42608;52.776;6.968;2022-09-29T16:14:00;4.45;;;3.90;;
56724;SDS011;42608;52.776;6.968;2022-09-29T16:16:30;2.42;;;2.22;;
56724;SDS011;42608;52.776;6.968;2022-09-29T16:19:01;1.77;;;1.67;;
56724;SDS011;42608;52.776;6.968;2022-09-29T16:21:32;2.22;;;1.70;;
56724;SDS011;42608;52.776;6.968;2022-09-29T16:24:04;2.67;;;1.90;;
56724;SDS011;42608;52.776;6.968;2022-09-29T16:31:35;1.45;;;1.23;;
56724;SDS011;42608;52.776;6.968;2022-09-29T16:34:03;1.95;;;1.85;;
56724;SDS011;42608;52.776;6.968;2022-09-29T16:36:52;1.75;;;1.65;;
56724;SDS011;42608;52.776;6.968;2022-09-29T16:39:20;1.67;;;1.58;;
56724;SDS011;42608;52.776;6.968;2022-09-29T16:41:51;1.30;;;1.20;;
56724;SDS011;42608;52.776;6.968;2022-09-29T16:47:21;1.30;;;1.30;;
56724;SDS011;42608;52.776;6.968;2022-09-29T16:52:27;1.05;;;1.05;;
56724;SDS011;42608;52.776;6.968;2022-09-29T16:55:39;1.25;;;1.10;;
56724;SDS011;42608;52.776;6.968;2022-09-29T16:57:49;1.25;;;1.15;;
56724;SDS011;42608;52.776;6.968;2022-09-29T17:00:23;1.00;;;1.00;;
56724;SDS011;42608;52.776;6.968;2022-09-29T17:02:52;1.10;;;1.10;;
56724;SDS011;42608;52.776;6.968;2022-09-29T17:05:30;1.77;;;1.60;;
56724;SDS011;42608;52.776;6.968;2022-09-29T17:08:09;1.85;;;1.73;;
56724;SDS011;42608;52.776;6.968;2022-09-29T17:10:46;1.77;;;1.67;;
56724;SDS011;42608;52.776;6.968;2022-09-29T17:13:16;1.50;;;1.40;;
56724;SDS011;42608;52.776;6.968;2022-09-29T17:15:43;1.73;;;1.33;;
56724;SDS011;42608;52.776;6.968;2022-09-29T17:18:12;2.10;;;1.60;;
56724;SDS011;42608;52.776;6.968;2022-09-29T17:20:38;1.75;;;1.48;;
56724;SDS011;42608;52.776;6.968;2022-09-29T17:23:04;1.92;;;1.40;;
56724;SDS011;42608;52.776;6.968;2022-09-29T17:25:31;1.55;;;1.45;;
56724;SDS011;42608;52.776;6.968;2022-09-29T17:27:57;2.03;;;1.70;;
56724;SDS011;42608;52.776;6.968;2022-09-29T17:30:35;1.75;;;1.45;;
56724;SDS011;42608;52.776;6.968;2022-09-29T17:33:01;2.22;;;1.58;;
56724;SDS011;42608;52.776;6.968;2022-09-29T17:35:29;2.35;;;1.80;;
56724;SDS011;42608;52.776;6.968;2022-09-29T17:37:58;1.80;;;1.70;;
56724;SDS011;42608;52.776;6.968;2022-09-29T17:40:26;2.35;;;2.00;;
56724;SDS011;42608;52.776;6.968;2022-09-29T17:43:09;2.25;;;2.05;;
56724;SDS011;42608;52.776;6.968;2022-09-29T17:45:35;3.60;;;1.70;;
56724;SDS011;42608;52.776;6.968;2022-09-29T17:48:03;1.73;;;1.63;;
56724;SDS011;42608;52.776;6.968;2022-09-29T17:50:36;2.00;;;1.80;;
56724;SDS011;42608;52.776;6.968;2022-09-29T17:53:05;1.73;;;1.63;;
56724;SDS011;42608;52.776;6.968;2022-09-29T17:55:32;1.80;;;1.70;;
56724;SDS011;42608;52.776;6.968;2022-09-29T17:57:58;2.80;;;1.80;;
56724;SDS011;42608;52.776;6.968;2022-09-29T18:00:30;1.73;;;1.63;;
56724;SDS011;42608;52.776;6.968;2022-09-29T18:03:00;1.95;;;1.83;;
56724;SDS011;42608;52.776;6.968;2022-09-29T18:05:26;2.25;;;1.92;;
56724;SDS011;42608;52.776;6.968;2022-09-29T18:07:54;2.20;;;2.00;;
56724;SDS011;42608;52.776;6.968;2022-09-29T18:10:26;3.90;;;1.90;;
56724;SDS011;42608;52.776;6.968;2022-09-29T18:12:54;2.63;;;2.10;;
56724;SDS011;42608;52.776;6.968;2022-09-29T18:15:20;1.92;;;1.83;;
56724;SDS011;42608;52.776;6.968;2022-09-29T18:17:46;2.10;;;1.90;;
56724;SDS011;42608;52.776;6.968;2022-09-29T18:20:17;4.13;;;1.73;;
56724;SDS011;42608;52.776;6.968;2022-09-29T18:22:44;3.20;;;1.70;;
56724;SDS011;42608;52.776;6.968;2022-09-29T18:25:15;2.78;;;2.40;;
56724;SDS011;42608;52.776;6.968;2022-09-29T18:27:43;2.88;;;2.40;;
56724;SDS011;42608;52.776;6.968;2022-09-29T18:30:18;3.55;;;3.17;;
56724;SDS011;42608;52.776;6.968;2022-09-29T18:32:46;3.00;;;2.70;;
56724;SDS011;42608;52.776;6.968;2022-09-29T18:35:35;2.80;;;2.60;;
56724;SDS011;42608;52.776;6.968;2022-09-29T18:38:01;2.47;;;1.90;;
56724;SDS011;42608;52.776;6.968;2022-09-29T18:40:28;2.15;;;1.95;;
56724;SDS011;42608;52.776;6.968;2022-09-29T18:42:55;2.00;;;1.83;;
56724;SDS011;42608;52.776;6.968;2022-09-29T18:45:27;2.45;;;1.80;;
56724;SDS011;42608;52.776;6.968;2022-09-29T18:47:58;4.57;;;2.22;;
56724;SDS011;42608;52.776;6.968;2022-09-29T18:50:29;2.03;;;1.92;;
56724;SDS011;42608;52.776;6.968;2022-09-29T18:52:59;2.40;;;2.30;;
56724;SDS011;42608;52.776;6.968;2022-09-29T18:55:26;2.05;;;1.70;;
56724;SDS011;42608;52.776;6.968;2022-09-29T18:57:54;2.50;;;1.92;;
56724;SDS011;42608;52.776;6.968;2022-09-29T19:00:22;2.63;;;2.30;;
56724;SDS011;42608;52.776;6.968;2022-09-29T19:02:50;3.03;;;2.25;;
56724;SDS011;42608;52.776;6.968;2022-09-29T19:05:23;3.83;;;3.00;;
56724;SDS011;42608;52.776;6.968;2022-09-29T19:07:53;4.47;;;2.22;;
56724;SDS011;42608;52.776;6.968;2022-09-29T19:10:21;2.20;;;2.00;;